createdAt,value
2023-01-28T00:07:41.242Z,99076.73
2023-01-28T00:17:46.868Z,99077.72
2023-01-28T00:27:51.153Z,99074.05
2023-01-28T00:37:56.599Z,99077.52
2023-01-28T00:48:02.076Z,99080.34
2023-01-28T00:58:07.580Z,99077.39
2023-01-28T01:08:13.340Z,99082.60
2023-01-28T01:18:18.916Z,99092.31
2023-01-28T01:28:24.888Z,99097.10
2023-01-28T01:38:30.503Z,99098.90
2023-01-28T01:48:36.876Z,99095.75
2023-01-28T01:58:43.696Z,99088.23
2023-01-28T02:08:49.242Z,99097.81
2023-01-28T02:18:54.598Z,99109.86
2023-01-28T02:28:59.383Z,99118.89
2023-01-28T02:39:08.574Z,99126.39
2023-01-28T02:49:16.872Z,99127.15
2023-01-28T02:59:34.494Z,99126.41
2023-01-28T03:09:39.301Z,99125.79
2023-01-28T03:20:02.960Z,99123.26
2023-01-28T03:30:30.636Z,99128.34
2023-01-28T03:40:36.194Z,99124.67
2023-01-28T03:50:41.973Z,99127.07
2023-01-28T04:00:48.113Z,99127.60
2023-01-28T04:10:53.842Z,99134.58
2023-01-28T04:20:59.249Z,99132.33
2023-01-28T04:31:04.821Z,99136.23
2023-01-28T04:41:10.516Z,99144.15
2023-01-28T04:51:16.098Z,99142.41
2023-01-28T05:01:22.083Z,99140.88
2023-01-28T05:11:27.773Z,99148.40
2023-01-28T05:21:33.307Z,99158.11
2023-01-28T05:31:38.618Z,99173.79
2023-01-28T05:41:44.115Z,99185.60
2023-01-28T05:51:50.070Z,99191.63
2023-01-28T06:01:55.482Z,99198.17
2023-01-28T06:12:00.841Z,99203.20
2023-01-28T06:22:06.538Z,99206.92
2023-01-28T06:32:12.166Z,99211.48
2023-01-28T06:42:17.539Z,99218.13
2023-01-28T06:52:23.025Z,99226.23
2023-01-28T07:02:28.528Z,99234.91
2023-01-28T07:12:34.339Z,99249.77
2023-01-28T07:22:42.151Z,99254.21
2023-01-28T07:32:48.150Z,99260.21
2023-01-28T07:42:52.949Z,99282.76
2023-01-28T07:52:58.798Z,99291.31
2023-01-28T08:03:05.927Z,99292.33
2023-01-28T08:13:10.230Z,99292.70
2023-01-28T08:23:14.440Z,99286.84
2023-01-28T08:33:20.531Z,99290.59
2023-01-28T08:43:25.101Z,99289.23
2023-01-28T08:53:30.568Z,99290.98
2023-01-28T09:03:36.410Z,99297.80
2023-01-28T09:13:42.647Z,99306.48
2023-01-28T09:23:48.330Z,99315.05
2023-01-28T09:44:05.796Z,99316.93
2023-01-28T09:54:14.043Z,99316.77
2023-01-28T10:04:23.427Z,99312.05
2023-01-28T10:24:39.082Z,99307.85
2023-01-28T10:34:46.135Z,99310.57
2023-01-28T10:44:54.472Z,99309.84
2023-01-28T10:55:02.474Z,99304.52
2023-01-28T11:05:08.457Z,99298.10
2023-01-28T11:15:20.740Z,99293.62
2023-01-28T11:25:27.811Z,99291.05
2023-01-28T11:35:35.023Z,99285.21
2023-01-28T11:45:45.335Z,99284.17
2023-01-28T11:55:54.777Z,99279.05
2023-01-28T12:06:12.800Z,99274.10
2023-01-28T12:16:38.633Z,99278.85
2023-01-28T12:26:44.467Z,99278.29
2023-01-28T12:36:51.416Z,99271.27
2023-01-28T12:46:59.880Z,99277.92
2023-01-28T12:57:10.120Z,99277.11
2023-01-28T13:07:23.195Z,99283.65
2023-01-28T13:17:31.893Z,99285.85
2023-01-28T13:27:39.150Z,99291.20
2023-01-28T13:37:48.684Z,99288.46
2023-01-28T13:48:01.530Z,99298.78
2023-01-28T13:58:38.100Z,99300.27
2023-01-28T14:08:59.414Z,99305.21
2023-01-28T14:19:11.231Z,99308.23
2023-01-28T14:29:19.162Z,99314.59
2023-01-28T14:39:28.110Z,99310.79
2023-01-28T14:49:39.433Z,99312.05
2023-01-28T14:59:47.377Z,99314.63
2023-01-28T15:10:01.743Z,99318.27
2023-01-28T15:20:11.318Z,99327.38
2023-01-28T15:30:24.827Z,99335.91
2023-01-28T15:40:32.958Z,99339.33
2023-01-28T15:50:41.610Z,99349.47
2023-01-28T16:00:49.499Z,99351.59
2023-01-28T16:10:57.972Z,99360.35
2023-01-28T16:21:10.001Z,99367.80
2023-01-28T16:31:18.201Z,99374.52
2023-01-28T16:41:23.334Z,99376.48
2023-01-28T16:51:30.908Z,99381.45
2023-01-28T17:01:38.089Z,99381.85
2023-01-28T17:11:45.746Z,99390.67
2023-01-28T17:21:53.087Z,99397.37
2023-01-28T17:31:59.549Z,99403.14
2023-01-28T17:42:06.042Z,99411.17
2023-01-28T17:52:13.303Z,99414.99
2023-01-28T18:02:20.431Z,99416.86
2023-01-28T18:12:27.736Z,99424.25
2023-01-28T18:22:35.280Z,99428.23
2023-01-28T18:32:42.345Z,99432.67
2023-01-28T18:42:48.493Z,99447.00
2023-01-28T18:52:56.618Z,99450.61
2023-01-28T19:03:02.521Z,99448.23
2023-01-28T19:13:09.994Z,99438.91
2023-01-28T19:23:17.559Z,99442.71
2023-01-28T19:33:24.581Z,99453.39
2023-01-28T19:43:31.664Z,99470.98
2023-01-28T19:53:38.436Z,99473.98
2023-01-28T20:03:45.955Z,99475.03
2023-01-28T20:13:56.880Z,99480.23
2023-01-28T20:24:06.725Z,99485.73
2023-01-28T20:34:12.992Z,99491.80
2023-01-28T20:44:20.836Z,99494.20
2023-01-28T20:54:28.664Z,99504.41
2023-01-28T21:04:36.246Z,99507.83
2023-01-28T21:14:43.292Z,99517.33
2023-01-28T21:24:51.487Z,99515.63
2023-01-28T21:34:58.685Z,99517.02
2023-01-28T21:45:06.605Z,99518.36
2023-01-28T21:55:12.718Z,99526.87
2023-01-28T22:05:17.631Z,99525.49
2023-01-28T22:15:23.630Z,99530.82
2023-01-28T22:25:30.641Z,99544.69
2023-01-28T22:35:37.874Z,99537.48
2023-01-28T22:45:45.086Z,99527.35
2023-01-28T22:55:51.919Z,99511.05
2023-01-28T23:05:59.026Z,99508.30
2023-01-28T23:16:24.403Z,99504.19
2023-01-28T23:26:32.702Z,99508.35
2023-01-28T23:36:40.041Z,99496.69
2023-01-28T23:46:47.232Z,99507.04
2023-01-28T23:56:55.057Z,99503.98
